createdAt,value
2023-05-21T00:00:02.212Z,94949.00
2023-05-21T00:01:02.225Z,94949.00
2023-05-21T00:02:02.264Z,94951.00
2023-05-21T00:03:02.320Z,94949.00
2023-05-21T00:04:02.366Z,94953.00
2023-05-21T00:05:02.269Z,94947.00
2023-05-21T00:06:02.298Z,94949.00
2023-05-21T00:07:02.281Z,94951.00
2023-05-21T00:08:02.270Z,94953.00
2023-05-21T00:09:02.268Z,94949.00
2023-05-21T00:10:02.287Z,94949.00
2023-05-21T00:11:02.291Z,94947.00
2023-05-21T00:12:02.305Z,94945.00
2023-05-21T00:13:02.265Z,94947.00
2023-05-21T00:14:02.255Z,94947.00
2023-05-21T00:15:02.261Z,94949.00
2023-05-21T00:16:02.278Z,94951.00
2023-05-21T00:17:02.281Z,94949.00
2023-05-21T00:18:02.288Z,94949.00
2023-05-21T00:19:02.364Z,94949.00
2023-05-21T00:20:02.292Z,94951.00
2023-05-21T00:21:02.327Z,94951.00
2023-05-21T00:22:02.340Z,94953.00
2023-05-21T00:23:02.365Z,94951.00
2023-05-21T00:24:02.398Z,94949.00
2023-05-21T00:25:02.411Z,94951.00
2023-05-21T00:26:02.409Z,94951.00
2023-05-21T00:27:02.424Z,94951.00
2023-05-21T00:28:02.462Z,94949.00
2023-05-21T00:29:02.436Z,94949.00
2023-05-21T00:30:02.438Z,94949.00
2023-05-21T00:31:02.438Z,94951.00
2023-05-21T00:32:02.567Z,94949.00
2023-05-21T00:33:02.675Z,94951.00
2023-05-21T00:34:02.457Z,94947.00
2023-05-21T00:35:02.463Z,94945.00
2023-05-21T00:36:02.455Z,94945.00
2023-05-21T00:37:02.469Z,94943.00
2023-05-21T00:38:02.469Z,94943.00
2023-05-21T00:39:02.554Z,94943.00
2023-05-21T00:40:02.472Z,94943.00
2023-05-21T00:41:02.473Z,94943.00
2023-05-21T00:42:02.464Z,94941.00
2023-05-21T00:43:02.460Z,94941.00
2023-05-21T00:44:02.550Z,94941.00
2023-05-21T00:45:02.486Z,94939.00
2023-05-21T00:46:02.509Z,94935.00
2023-05-21T00:47:02.451Z,94933.00
2023-05-21T00:48:02.508Z,94933.00
2023-05-21T00:49:02.462Z,94931.00
2023-05-21T00:50:02.461Z,94929.00
2023-05-21T00:51:02.463Z,94929.00
2023-05-21T00:52:02.458Z,94929.00
2023-05-21T00:53:02.454Z,94931.00
2023-05-21T00:54:02.479Z,94931.00
2023-05-21T00:55:02.452Z,94931.00
2023-05-21T00:56:02.465Z,94931.00
2023-05-21T00:57:02.461Z,94933.00
2023-05-21T00:58:02.463Z,94933.00
2023-05-21T00:59:02.465Z,94929.00
2023-05-21T01:00:02.508Z,94929.00
2023-05-21T01:01:02.545Z,94929.00
2023-05-21T01:02:02.565Z,94929.00
2023-05-21T01:03:02.552Z,94929.00
2023-05-21T01:04:02.481Z,94929.00
2023-05-21T01:05:02.507Z,94929.00
2023-05-21T01:06:02.527Z,94929.00
2023-05-21T01:07:02.502Z,94933.00
2023-05-21T01:08:02.507Z,94933.00
2023-05-21T01:09:04.416Z,94933.00
2023-05-21T01:10:02.491Z,94931.00
2023-05-21T01:11:02.493Z,94929.00
2023-05-21T01:12:02.482Z,94929.00
2023-05-21T01:13:02.477Z,94927.00
2023-05-21T01:14:02.469Z,94929.00
2023-05-21T01:15:02.481Z,94931.00
2023-05-21T01:16:02.488Z,94931.00
2023-05-21T01:17:02.499Z,94929.00
2023-05-21T01:18:02.487Z,94933.00
2023-05-21T01:19:02.546Z,94933.00
2023-05-21T01:20:02.428Z,94933.00
2023-05-21T01:21:02.471Z,94933.00
2023-05-21T01:22:02.470Z,94935.00
2023-05-21T01:23:02.400Z,94933.00
2023-05-21T01:24:02.398Z,94933.00
2023-05-21T01:25:02.402Z,94933.00
2023-05-21T01:26:02.418Z,94933.00
2023-05-21T01:27:02.381Z,94931.00
2023-05-21T01:28:02.394Z,94929.00
2023-05-21T01:29:02.363Z,94927.00
2023-05-21T01:30:02.367Z,94927.00
2023-05-21T01:31:02.357Z,94927.00
2023-05-21T01:32:02.376Z,94929.00
2023-05-21T01:33:02.498Z,94929.00
2023-05-21T01:34:02.504Z,94931.00
2023-05-21T01:35:02.406Z,94933.00
2023-05-21T01:36:02.328Z,94927.00
2023-05-21T01:37:02.332Z,94929.00
2023-05-21T01:38:02.318Z,94923.00
2023-05-21T01:39:02.301Z,94921.00
2023-05-21T01:40:02.305Z,94921.00
2023-05-21T01:41:02.285Z,94921.00
2023-05-21T01:42:02.285Z,94919.00
2023-05-21T01:43:02.268Z,94919.00
2023-05-21T01:44:02.261Z,94919.00
2023-05-21T01:45:02.256Z,94919.00
2023-05-21T01:46:02.306Z,94919.00
2023-05-21T01:47:02.265Z,94919.00
2023-05-21T01:48:02.333Z,94921.00
2023-05-21T01:49:02.231Z,94919.00
2023-05-21T01:50:02.227Z,94919.00
2023-05-21T01:51:02.230Z,94919.00
2023-05-21T01:52:02.217Z,94921.00
2023-05-21T01:53:02.232Z,94917.00
2023-05-21T01:54:02.207Z,94919.00
2023-05-21T01:55:02.188Z,94917.00
2023-05-21T01:56:02.182Z,94921.00
2023-05-21T01:57:02.176Z,94921.00
2023-05-21T01:58:02.729Z,94921.00
2023-05-21T01:59:02.168Z,94921.00
2023-05-21T02:00:02.167Z,94919.00
2023-05-21T02:01:02.149Z,94917.00
2023-05-21T02:02:02.199Z,94917.00
2023-05-21T02:03:02.258Z,94913.00
2023-05-21T02:04:02.220Z,94913.00
2023-05-21T02:05:02.126Z,94913.00
2023-05-21T02:06:02.119Z,94909.00
2023-05-21T02:07:02.105Z,94909.00
2023-05-21T02:08:02.107Z,94909.00
2023-05-21T02:09:02.097Z,94909.00
2023-05-21T02:10:02.113Z,94909.00
2023-05-21T02:11:02.096Z,94909.00
2023-05-21T02:12:02.082Z,94909.00
2023-05-21T02:13:02.076Z,94909.00
2023-05-21T02:14:02.062Z,94909.00
2023-05-21T02:15:02.072Z,94906.00
2023-05-21T02:16:02.054Z,94904.00
2023-05-21T02:17:02.044Z,94904.00
2023-05-21T02:18:02.092Z,94904.00
2023-05-21T02:19:02.046Z,94904.00
2023-05-21T02:20:02.054Z,94900.00
2023-05-21T02:21:02.022Z,94900.00
2023-05-21T02:22:02.020Z,94900.00
2023-05-21T02:23:02.055Z,94902.00
2023-05-21T02:24:01.999Z,94902.00
2023-05-21T02:25:02.001Z,94902.00
2023-05-21T02:26:01.982Z,94904.00
2023-05-21T02:27:01.979Z,94900.00
2023-05-21T02:28:01.967Z,94902.00
2023-05-21T02:29:01.964Z,94900.00
2023-05-21T02:30:02.004Z,94902.00
2023-05-21T02:31:01.956Z,94900.00
2023-05-21T02:32:01.942Z,94892.00
2023-05-21T02:33:01.965Z,94900.00
2023-05-21T02:34:01.962Z,94892.00
2023-05-21T02:35:01.934Z,94902.00
2023-05-21T02:36:01.946Z,94900.00
2023-05-21T02:37:01.919Z,94902.00
2023-05-21T02:38:01.911Z,94902.00
2023-05-21T02:39:01.963Z,94904.00
2023-05-21T02:40:01.898Z,94904.00
2023-05-21T02:41:01.884Z,94904.00
2023-05-21T02:42:01.880Z,94904.00
2023-05-21T02:43:01.872Z,94902.00
2023-05-21T02:44:01.867Z,94902.00
2023-05-21T02:45:01.866Z,94900.00
2023-05-21T02:46:01.972Z,94902.00
2023-05-21T02:47:01.845Z,94900.00
2023-05-21T02:48:01.878Z,94902.00
2023-05-21T02:49:01.836Z,94892.00
2023-05-21T02:50:01.855Z,94892.00
2023-05-21T02:51:01.814Z,94892.00
2023-05-21T02:52:01.876Z,94902.00
2023-05-21T02:53:01.802Z,94904.00
2023-05-21T02:54:01.801Z,94909.00
2023-05-21T02:55:01.809Z,94902.00
2023-05-21T02:56:01.783Z,94902.00
2023-05-21T02:57:01.765Z,94902.00
2023-05-21T02:58:01.765Z,94902.00
2023-05-21T02:59:01.762Z,94904.00
2023-05-21T03:00:00.750Z,94906.00
2023-05-21T03:01:01.828Z,94906.00
2023-05-21T03:02:01.800Z,94906.00
2023-05-21T03:03:01.878Z,94906.00
2023-05-21T03:04:01.741Z,94907.00
2023-05-21T03:05:01.726Z,94906.00
2023-05-21T03:06:01.790Z,94907.00
2023-05-21T03:07:01.713Z,94907.00
2023-05-21T03:08:01.731Z,94909.00
2023-05-21T03:09:01.714Z,94907.00
2023-05-21T03:10:01.733Z,94907.00
2023-05-21T03:11:01.693Z,94909.00
2023-05-21T03:12:01.675Z,94909.00
2023-05-21T03:13:01.733Z,94915.00
2023-05-21T03:14:01.687Z,94911.00
2023-05-21T03:15:01.674Z,94913.00
2023-05-21T03:16:01.655Z,94915.00
2023-05-21T03:17:01.714Z,94919.00
2023-05-21T03:18:01.781Z,94917.00
2023-05-21T03:19:01.666Z,94917.00
2023-05-21T03:20:01.699Z,94921.00
2023-05-21T03:21:01.633Z,94919.00
2023-05-21T03:22:01.653Z,94919.00
2023-05-21T03:23:01.646Z,94919.00
2023-05-21T03:24:01.665Z,94921.00
2023-05-21T03:25:01.645Z,94919.00
2023-05-21T03:26:01.659Z,94921.00
2023-05-21T03:27:01.656Z,94923.00
2023-05-21T03:28:01.669Z,94925.00
2023-05-21T03:29:01.672Z,94923.00
2023-05-21T03:30:01.709Z,94923.00
2023-05-21T03:31:01.685Z,94923.00
2023-05-21T03:32:01.783Z,94923.00
2023-05-21T03:33:01.726Z,94925.00
2023-05-21T03:34:01.706Z,94923.00
2023-05-21T03:35:01.712Z,94925.00
2023-05-21T03:36:01.715Z,94925.00
2023-05-21T03:37:01.729Z,94921.00
2023-05-21T03:38:01.738Z,94921.00
2023-05-21T03:39:01.743Z,94921.00
2023-05-21T03:40:01.789Z,94921.00
2023-05-21T03:41:01.763Z,94919.00
2023-05-21T03:42:01.769Z,94923.00
2023-05-21T03:43:01.768Z,94921.00
2023-05-21T03:44:01.799Z,94925.00
2023-05-21T03:45:01.798Z,94923.00
2023-05-21T03:46:01.847Z,94925.00
2023-05-21T03:47:01.805Z,94925.00
2023-05-21T03:48:01.907Z,94923.00
2023-05-21T03:49:01.827Z,94921.00
2023-05-21T03:50:01.865Z,94923.00
2023-05-21T03:51:01.835Z,94921.00
2023-05-21T03:52:01.842Z,94921.00
2023-05-21T03:53:01.854Z,94923.00
2023-05-21T03:54:01.858Z,94925.00
2023-05-21T03:55:01.887Z,94921.00
2023-05-21T03:56:01.887Z,94923.00
2023-05-21T03:57:01.882Z,94921.00
2023-05-21T03:58:01.895Z,94921.00
2023-05-21T03:59:01.897Z,94919.00
2023-05-21T04:00:01.882Z,94919.00
2023-05-21T04:01:01.885Z,94919.00
2023-05-21T04:02:01.889Z,94919.00
2023-05-21T04:03:02.103Z,94921.00
2023-05-21T04:04:02.018Z,94917.00
2023-05-21T04:05:01.930Z,94925.00
2023-05-21T04:06:01.969Z,94925.00
2023-05-21T04:07:01.964Z,94927.00
2023-05-21T04:08:01.950Z,94925.00
2023-05-21T04:09:01.951Z,94923.00
2023-05-21T04:10:01.976Z,94917.00
2023-05-21T04:11:01.984Z,94919.00
2023-05-21T04:12:02.023Z,94921.00
2023-05-21T04:13:02.006Z,94921.00
2023-05-21T04:14:02.008Z,94925.00
2023-05-21T04:15:02.034Z,94927.00
2023-05-21T04:16:02.064Z,94925.00
2023-05-21T04:17:02.019Z,94921.00
2023-05-21T04:18:02.108Z,94925.00
2023-05-21T04:19:02.094Z,94925.00
2023-05-21T04:20:02.077Z,94923.00
2023-05-21T04:21:02.047Z,94923.00
2023-05-21T04:22:02.033Z,94923.00
2023-05-21T04:23:02.041Z,94923.00
2023-05-21T04:24:02.038Z,94923.00
2023-05-21T04:25:02.040Z,94921.00
2023-05-21T04:26:02.039Z,94917.00
2023-05-21T04:27:02.047Z,94915.00
2023-05-21T04:28:02.077Z,94917.00
2023-05-21T04:29:02.058Z,94917.00
2023-05-21T04:30:02.077Z,94915.00
2023-05-21T04:31:02.118Z,94915.00
2023-05-21T04:32:02.080Z,94913.00
2023-05-21T04:33:02.136Z,94911.00
2023-05-21T04:34:02.119Z,94915.00
2023-05-21T04:35:02.112Z,94915.00
2023-05-21T04:36:02.103Z,94911.00
2023-05-21T04:37:02.132Z,94911.00
2023-05-21T04:38:04.082Z,94913.00
2023-05-21T04:39:02.114Z,94913.00
2023-05-21T04:40:02.120Z,94913.00
2023-05-21T04:41:02.105Z,94917.00
2023-05-21T04:42:02.094Z,94917.00
2023-05-21T04:43:02.099Z,94919.00
2023-05-21T04:44:02.112Z,94923.00
2023-05-21T04:45:02.070Z,94921.00
2023-05-21T04:46:02.065Z,94919.00
2023-05-21T04:47:02.139Z,94923.00
2023-05-21T04:48:02.098Z,94919.00
2023-05-21T04:49:02.055Z,94917.00
2023-05-21T04:50:02.049Z,94921.00
2023-05-21T04:51:02.050Z,94919.00
2023-05-21T04:52:02.032Z,94921.00
2023-05-21T04:53:02.023Z,94921.00
2023-05-21T04:54:02.013Z,94921.00
2023-05-21T04:55:02.007Z,94923.00
2023-05-21T04:56:02.015Z,94923.00
2023-05-21T04:57:01.999Z,94921.00
2023-05-21T04:58:02.003Z,94923.00
2023-05-21T04:59:03.354Z,94919.00
2023-05-21T05:00:02.035Z,94919.00
2023-05-21T05:01:02.054Z,94923.00
2023-05-21T05:02:01.968Z,94923.00
2023-05-21T05:03:02.048Z,94927.00
2023-05-21T05:04:02.043Z,94933.00
2023-05-21T05:05:01.938Z,94931.00
2023-05-21T05:06:01.932Z,94931.00
2023-05-21T05:07:01.947Z,94931.00
2023-05-21T05:08:01.924Z,94931.00
2023-05-21T05:09:01.934Z,94927.00
2023-05-21T05:10:01.913Z,94929.00
2023-05-21T05:11:01.902Z,94931.00
2023-05-21T05:12:01.906Z,94931.00
2023-05-21T05:13:01.896Z,94929.00
2023-05-21T05:14:01.882Z,94927.00
2023-05-21T05:15:01.877Z,94923.00
2023-05-21T05:16:01.905Z,94923.00
2023-05-21T05:17:01.968Z,94923.00
2023-05-21T05:18:01.889Z,94927.00
2023-05-21T05:19:01.901Z,94923.00
2023-05-21T05:20:01.841Z,94921.00
2023-05-21T05:21:01.839Z,94919.00
2023-05-21T05:22:01.835Z,94917.00
2023-05-21T05:23:01.840Z,94915.00
2023-05-21T05:24:01.819Z,94917.00
2023-05-21T05:25:01.804Z,94915.00
2023-05-21T05:26:01.820Z,94917.00
2023-05-21T05:27:01.802Z,94915.00
2023-05-21T05:28:01.795Z,94915.00
2023-05-21T05:29:01.775Z,94915.00
2023-05-21T05:30:01.782Z,94911.00
2023-05-21T05:31:01.903Z,94911.00
2023-05-21T05:32:01.798Z,94913.00
2023-05-21T05:33:01.791Z,94915.00
2023-05-21T05:34:01.749Z,94921.00
2023-05-21T05:35:02.685Z,94915.00
2023-05-21T05:36:01.734Z,94911.00
2023-05-21T05:37:01.737Z,94915.00
2023-05-21T05:38:01.732Z,94913.00
2023-05-21T05:39:01.721Z,94909.00
2023-05-21T05:40:01.712Z,94906.00
2023-05-21T05:41:01.717Z,94906.00
2023-05-21T05:42:01.704Z,94909.00
2023-05-21T05:43:01.692Z,94907.00
2023-05-21T05:44:01.686Z,94902.00
2023-05-21T05:45:01.676Z,94906.00
2023-05-21T05:46:01.700Z,94900.00
2023-05-21T05:47:01.678Z,94904.00
2023-05-21T05:48:01.735Z,94890.00
2023-05-21T05:49:01.652Z,94888.00
2023-05-21T05:50:01.649Z,94900.00
2023-05-21T05:51:01.638Z,94890.00
2023-05-21T05:52:01.641Z,94888.00
2023-05-21T05:53:01.633Z,94890.00
2023-05-21T05:54:01.628Z,94890.00
2023-05-21T05:55:01.619Z,94888.00
2023-05-21T05:56:01.616Z,94886.00
2023-05-21T05:57:01.604Z,94884.00
2023-05-21T05:58:01.589Z,94888.00
2023-05-21T05:59:01.585Z,94886.00
2023-05-21T06:00:01.689Z,94892.00
2023-05-21T06:01:01.573Z,94890.00
2023-05-21T06:02:01.568Z,94892.00
2023-05-21T06:03:01.694Z,94900.00
2023-05-21T06:04:01.653Z,94902.00
2023-05-21T06:05:01.580Z,94902.00
2023-05-21T06:06:01.561Z,94902.00
2023-05-21T06:07:01.539Z,94904.00
2023-05-21T06:08:01.565Z,94902.00
2023-05-21T06:09:01.517Z,94892.00
2023-05-21T06:10:01.520Z,94900.00
2023-05-21T06:11:01.500Z,94902.00
2023-05-21T06:12:01.500Z,94900.00
2023-05-21T06:13:01.496Z,94890.00
2023-05-21T06:14:01.485Z,94888.00
2023-05-21T06:15:01.475Z,94892.00
2023-05-21T06:16:01.524Z,94892.00
2023-05-21T06:17:01.485Z,94892.00
2023-05-21T06:18:01.488Z,94890.00
2023-05-21T06:19:01.486Z,94888.00
2023-05-21T06:20:01.474Z,94888.00
2023-05-21T06:21:01.446Z,94886.00
2023-05-21T06:22:01.437Z,94882.00
2023-05-21T06:23:01.428Z,94886.00
2023-05-21T06:24:01.416Z,94888.00
2023-05-21T06:25:01.429Z,94886.00
2023-05-21T06:26:01.435Z,94892.00
2023-05-21T06:27:01.425Z,94888.00
2023-05-21T06:28:01.438Z,94890.00
2023-05-21T06:29:01.438Z,94888.00
2023-05-21T06:30:01.436Z,94890.00
2023-05-21T06:31:01.443Z,94900.00
2023-05-21T06:32:01.444Z,94892.00
2023-05-21T06:33:01.524Z,94892.00
2023-05-21T06:34:01.760Z,94892.00
2023-05-21T06:35:01.440Z,94890.00
2023-05-21T06:36:01.485Z,94892.00
2023-05-21T06:37:01.435Z,94900.00
2023-05-21T06:38:01.440Z,94892.00
2023-05-21T06:39:01.440Z,94892.00
2023-05-21T06:40:01.434Z,94890.00
2023-05-21T06:41:01.436Z,94892.00
2023-05-21T06:42:01.459Z,94892.00
2023-05-21T06:43:01.442Z,94890.00
2023-05-21T06:44:01.449Z,94890.00
2023-05-21T06:45:01.444Z,94888.00
2023-05-21T06:46:01.557Z,94888.00
2023-05-21T06:47:01.459Z,94890.00
2023-05-21T06:48:01.494Z,94892.00
2023-05-21T06:49:01.447Z,94892.00
2023-05-21T06:50:01.444Z,94900.00
2023-05-21T06:51:01.434Z,94900.00
2023-05-21T06:52:01.463Z,94892.00
2023-05-21T06:53:01.443Z,94892.00
2023-05-21T06:54:01.440Z,94890.00
2023-05-21T06:55:01.436Z,94892.00
2023-05-21T06:56:01.457Z,94900.00
2023-05-21T06:57:01.438Z,94900.00
2023-05-21T06:58:01.448Z,94902.00
2023-05-21T06:59:01.449Z,94900.00
2023-05-21T07:00:01.462Z,94902.00
2023-05-21T07:01:01.493Z,94902.00
2023-05-21T07:02:03.766Z,94900.00
2023-05-21T07:03:01.558Z,94900.00
2023-05-21T07:04:01.449Z,94900.00
2023-05-21T07:05:01.469Z,94900.00
2023-05-21T07:06:01.434Z,94900.00
2023-05-21T07:07:01.421Z,94892.00
2023-05-21T07:08:01.440Z,94892.00
2023-05-21T07:09:01.416Z,94892.00
2023-05-21T07:10:01.410Z,94900.00
2023-05-21T07:11:01.401Z,94892.00
2023-05-21T07:12:01.387Z,94890.00
2023-05-21T07:13:01.393Z,94886.00
2023-05-21T07:14:01.382Z,94882.00
2023-05-21T07:15:01.384Z,94884.00
2023-05-21T07:16:01.372Z,94886.00
2023-05-21T07:17:01.415Z,94886.00
2023-05-21T07:18:01.369Z,94884.00
2023-05-21T07:19:01.373Z,94884.00
2023-05-21T07:20:01.353Z,94882.00
2023-05-21T07:21:01.331Z,94878.00
2023-05-21T07:22:01.333Z,94878.00
2023-05-21T07:23:01.332Z,94876.00
2023-05-21T07:24:01.345Z,94874.00
2023-05-21T07:25:01.317Z,94876.00
2023-05-21T07:26:01.305Z,94874.00
2023-05-21T07:27:03.160Z,94872.00
2023-05-21T07:28:01.300Z,94872.00
2023-05-21T07:29:01.321Z,94872.00
2023-05-21T07:30:01.285Z,94870.00
2023-05-21T07:31:01.301Z,94868.00
2023-05-21T07:32:01.269Z,94870.00
2023-05-21T07:33:01.338Z,94868.00
2023-05-21T07:34:01.249Z,94866.00
2023-05-21T07:35:01.252Z,94862.00
2023-05-21T07:36:01.244Z,94864.00
2023-05-21T07:37:01.243Z,94864.00
2023-05-21T07:38:01.254Z,94864.00
2023-05-21T07:39:01.222Z,94864.00
2023-05-21T07:40:01.278Z,94862.00
2023-05-21T07:41:01.213Z,94861.00
2023-05-21T07:42:01.202Z,94861.00
2023-05-21T07:43:01.217Z,94861.00
2023-05-21T07:44:01.194Z,94861.00
2023-05-21T07:45:01.195Z,94859.00
2023-05-21T07:46:01.210Z,94861.00
2023-05-21T07:47:01.175Z,94861.00
2023-05-21T07:48:01.255Z,94861.00
2023-05-21T07:49:01.154Z,94862.00
2023-05-21T07:50:01.199Z,94862.00
2023-05-21T07:51:01.146Z,94862.00
2023-05-21T07:52:01.155Z,94864.00
2023-05-21T07:53:01.164Z,94862.00
2023-05-21T07:54:01.124Z,94861.00
2023-05-21T07:55:01.128Z,94861.00
2023-05-21T07:56:01.144Z,94859.00
2023-05-21T07:57:01.099Z,94857.00
2023-05-21T07:58:01.098Z,94857.00
2023-05-21T07:59:01.090Z,94857.00
2023-05-21T08:00:01.083Z,94857.00
2023-05-21T08:01:01.084Z,94857.00
2023-05-21T08:02:01.087Z,94857.00
2023-05-21T08:03:01.128Z,94857.00
2023-05-21T08:04:01.247Z,94855.00
2023-05-21T08:05:01.067Z,94855.00
2023-05-21T08:06:01.046Z,94853.00
2023-05-21T08:07:01.036Z,94853.00
2023-05-21T08:08:01.041Z,94853.00
2023-05-21T08:09:01.019Z,94853.00
2023-05-21T08:10:02.662Z,94855.00
2023-05-21T08:11:01.003Z,94855.00
2023-05-21T08:12:01.041Z,94851.00
2023-05-21T08:13:00.998Z,94851.00
2023-05-21T08:14:00.985Z,94851.00
2023-05-21T08:15:00.977Z,94853.00
2023-05-21T08:16:01.013Z,94849.00
2023-05-21T08:17:00.975Z,94849.00
2023-05-21T08:18:01.003Z,94849.00
2023-05-21T08:19:00.975Z,94847.00
2023-05-21T08:20:00.959Z,94849.00
2023-05-21T08:21:00.947Z,94845.00
2023-05-21T08:22:00.932Z,94843.00
2023-05-21T08:23:00.934Z,94841.00
2023-05-21T08:24:00.921Z,94839.00
2023-05-21T08:25:00.924Z,94843.00
2023-05-21T08:26:00.927Z,94841.00
2023-05-21T08:27:00.898Z,94839.00
2023-05-21T08:28:00.919Z,94839.00
2023-05-21T08:29:00.896Z,94837.00
2023-05-21T08:30:00.892Z,94837.00
2023-05-21T08:31:00.897Z,94835.00
2023-05-21T08:32:00.906Z,94833.00
2023-05-21T08:33:00.916Z,94833.00
2023-05-21T08:34:00.854Z,94831.00
2023-05-21T08:35:00.848Z,94831.00
2023-05-21T08:36:00.860Z,94833.00
2023-05-21T08:37:00.835Z,94831.00
2023-05-21T08:38:00.845Z,94835.00
2023-05-21T08:39:00.812Z,94831.00
2023-05-21T08:40:00.808Z,94831.00
2023-05-21T08:41:00.822Z,94831.00
2023-05-21T08:42:00.797Z,94833.00
2023-05-21T08:43:00.794Z,94831.00
2023-05-21T08:44:00.813Z,94833.00
2023-05-21T08:45:00.783Z,94833.00
2023-05-21T08:46:00.804Z,94833.00
2023-05-21T08:47:00.796Z,94833.00
2023-05-21T08:48:00.853Z,94831.00
2023-05-21T08:49:00.748Z,94831.00
2023-05-21T08:50:00.820Z,94831.00
2023-05-21T08:51:00.748Z,94831.00
2023-05-21T08:52:00.752Z,94829.00
2023-05-21T08:53:00.790Z,94831.00
2023-05-21T08:54:00.790Z,94829.00
2023-05-21T08:55:00.706Z,94829.00
2023-05-21T08:56:00.722Z,94831.00
2023-05-21T08:57:00.760Z,94829.00
2023-05-21T08:58:00.688Z,94827.00
2023-05-21T08:59:00.697Z,94829.00
2023-05-21T09:00:00.697Z,94829.00
2023-05-21T09:01:00.734Z,94831.00
2023-05-21T09:02:00.706Z,94829.00
2023-05-21T09:03:00.752Z,94829.00
2023-05-21T09:04:12.360Z,94827.00
2023-05-21T09:05:00.641Z,94827.00
2023-05-21T09:06:00.643Z,94825.00
2023-05-21T09:07:00.633Z,94825.00
2023-05-21T09:08:00.624Z,94823.00
2023-05-21T09:09:00.619Z,94827.00
2023-05-21T09:10:00.604Z,94825.00
2023-05-21T09:11:00.603Z,94829.00
2023-05-21T09:12:00.596Z,94829.00
2023-05-21T09:13:00.593Z,94829.00
2023-05-21T09:14:00.582Z,94827.00
2023-05-21T09:15:00.589Z,94827.00
2023-05-21T09:16:00.610Z,94829.00
2023-05-21T09:17:00.675Z,94825.00
2023-05-21T09:18:00.614Z,94831.00
2023-05-21T09:19:03.004Z,94831.00
2023-05-21T09:20:00.542Z,94829.00
2023-05-21T09:21:00.572Z,94829.00
2023-05-21T09:22:00.535Z,94829.00
2023-05-21T09:23:00.518Z,94833.00
2023-05-21T09:24:00.534Z,94831.00
2023-05-21T09:25:00.510Z,94833.00
2023-05-21T09:26:00.528Z,94833.00
2023-05-21T09:27:00.499Z,94833.00
2023-05-21T09:28:00.502Z,94831.00
2023-05-21T09:29:00.480Z,94833.00
2023-05-21T09:30:00.480Z,94829.00
2023-05-21T09:31:00.480Z,94827.00
2023-05-21T09:32:00.498Z,94825.00
2023-05-21T09:33:00.556Z,94827.00
2023-05-21T09:34:00.489Z,94823.00
2023-05-21T09:35:00.455Z,94823.00
2023-05-21T09:36:00.454Z,94823.00
2023-05-21T09:37:00.432Z,94823.00
2023-05-21T09:38:00.425Z,94825.00
2023-05-21T09:39:00.511Z,94823.00
2023-05-21T09:40:00.440Z,94825.00
2023-05-21T09:41:00.426Z,94825.00
2023-05-21T09:42:00.426Z,94827.00
2023-05-21T09:43:00.405Z,94825.00
2023-05-21T09:44:00.407Z,94829.00
2023-05-21T09:45:00.411Z,94829.00
2023-05-21T09:46:02.117Z,94825.00
2023-05-21T09:47:00.513Z,94825.00
2023-05-21T09:48:00.464Z,94823.00
2023-05-21T09:49:00.377Z,94823.00
2023-05-21T09:50:00.440Z,94825.00
2023-05-21T09:51:00.374Z,94823.00
2023-05-21T09:52:00.380Z,94823.00
2023-05-21T09:53:00.357Z,94821.00
2023-05-21T09:54:00.349Z,94819.00
2023-05-21T09:55:00.341Z,94819.00
2023-05-21T09:56:00.332Z,94821.00
2023-05-21T09:57:00.328Z,94819.00
2023-05-21T09:58:00.872Z,94819.00
2023-05-21T09:59:00.331Z,94819.00
2023-05-21T10:00:00.363Z,94819.00
2023-05-21T10:01:00.298Z,94817.00
2023-05-21T10:02:00.329Z,94815.00
2023-05-21T10:03:00.353Z,94815.00
2023-05-21T10:04:00.462Z,94817.00
2023-05-21T10:05:00.290Z,94817.00
2023-05-21T10:06:00.272Z,94817.00
2023-05-21T10:07:00.264Z,94819.00
2023-05-21T10:08:00.259Z,94817.00
2023-05-21T10:09:01.226Z,94817.00
2023-05-21T10:10:00.240Z,94819.00
2023-05-21T10:11:00.235Z,94819.00
2023-05-21T10:12:00.248Z,94817.00
2023-05-21T10:13:00.223Z,94817.00
2023-05-21T10:14:00.223Z,94819.00
2023-05-21T10:15:00.223Z,94815.00
2023-05-21T10:16:00.268Z,94813.00
2023-05-21T10:17:00.196Z,94813.00
2023-05-21T10:18:00.245Z,94813.00
2023-05-21T10:19:00.287Z,94815.00
2023-05-21T10:20:00.256Z,94813.00
2023-05-21T10:21:00.180Z,94811.00
2023-05-21T10:22:00.173Z,94813.00
2023-05-21T10:23:00.194Z,94813.00
2023-05-21T10:24:00.168Z,94811.00
2023-05-21T10:25:00.213Z,94809.00
2023-05-21T10:26:00.144Z,94809.00
2023-05-21T10:27:00.149Z,94807.00
2023-05-21T10:28:00.129Z,94806.00
2023-05-21T10:29:00.240Z,94806.00
2023-05-21T10:30:00.126Z,94806.00
2023-05-21T10:31:00.144Z,94804.00
2023-05-21T10:32:00.165Z,94802.00
2023-05-21T10:33:00.232Z,94802.00
2023-05-21T10:34:00.107Z,94800.00
2023-05-21T10:35:01.612Z,94802.00
2023-05-21T10:36:00.147Z,94802.00
2023-05-21T10:37:00.092Z,94800.00
2023-05-21T10:38:00.067Z,94800.00
2023-05-21T10:39:00.057Z,94796.00
2023-05-21T10:40:00.052Z,94796.00
2023-05-21T10:41:00.048Z,94792.00
2023-05-21T10:42:00.041Z,94796.00
2023-05-21T10:43:00.036Z,94794.00
2023-05-21T10:44:00.041Z,94794.00
2023-05-21T10:45:00.025Z,94792.00
2023-05-21T10:46:00.064Z,94790.00
2023-05-21T10:47:00.010Z,94790.00
2023-05-21T10:48:00.089Z,94790.00
2023-05-21T10:49:00.004Z,94788.00
2023-05-21T10:49:59.997Z,94788.00
2023-05-21T10:50:59.990Z,94786.00
2023-05-21T10:52:00.024Z,94784.00
2023-05-21T10:52:59.973Z,94784.00
2023-05-21T10:53:59.959Z,94782.00
2023-05-21T10:54:59.961Z,94784.00
2023-05-21T10:55:59.965Z,94782.00
2023-05-21T10:56:59.957Z,94780.00
2023-05-21T10:57:59.942Z,94782.00
2023-05-21T10:58:59.954Z,94782.00
2023-05-21T10:59:59.984Z,94778.00
2023-05-21T11:01:00.107Z,94776.00
2023-05-21T11:02:00.267Z,94776.00
2023-05-21T11:03:00.350Z,94774.00
2023-05-21T11:04:00.389Z,94776.00
2023-05-21T11:05:00.294Z,94772.00
2023-05-21T11:06:00.399Z,94770.00
2023-05-21T11:07:00.415Z,94770.00
2023-05-21T11:08:00.515Z,94770.00
2023-05-21T11:09:00.582Z,94770.00
2023-05-21T11:10:00.605Z,94768.00
2023-05-21T11:11:00.705Z,94770.00
2023-05-21T11:12:00.790Z,94770.00
2023-05-21T11:13:00.797Z,94768.00
2023-05-21T11:14:00.859Z,94770.00
2023-05-21T11:15:00.868Z,94766.00
2023-05-21T11:16:00.969Z,94764.00
2023-05-21T11:17:01.050Z,94762.00
2023-05-21T11:18:01.132Z,94760.00
2023-05-21T11:19:01.174Z,94762.00
2023-05-21T11:20:01.179Z,94762.00
2023-05-21T11:21:01.267Z,94760.00
2023-05-21T11:22:01.282Z,94760.00
2023-05-21T11:23:01.348Z,94760.00
2023-05-21T11:24:01.424Z,94757.00
2023-05-21T11:25:01.490Z,94757.00
2023-05-21T11:26:01.576Z,94755.00
2023-05-21T11:27:01.591Z,94759.00
2023-05-21T11:28:01.657Z,94757.00
2023-05-21T11:29:01.693Z,94757.00
2023-05-21T11:30:01.742Z,94757.00
2023-05-21T11:31:01.823Z,94759.00
2023-05-21T11:32:01.834Z,94759.00
2023-05-21T11:33:01.913Z,94757.00
2023-05-21T11:34:01.917Z,94755.00
2023-05-21T11:35:01.988Z,94755.00
2023-05-21T11:36:02.043Z,94755.00
2023-05-21T11:37:02.093Z,94753.00
2023-05-21T11:38:02.143Z,94757.00
2023-05-21T11:39:02.237Z,94757.00
2023-05-21T11:40:02.279Z,94753.00
2023-05-21T11:41:02.321Z,94751.00
2023-05-21T11:42:04.396Z,94751.00
2023-05-21T11:43:02.370Z,94751.00
2023-05-21T11:44:02.369Z,94749.00